TimeCDT,TemperatureF,Dew PointF,Humidity,Sea Level PressureIn,VisibilityMPH,Wind Direction,Wind SpeedMPH,Gust SpeedMPH,PrecipitationIn,Events,Conditions,WindDirDegrees,DateUTC
12:53 AM,30.9,27.0,85,29.97,8.0,North,19.6,-,0.00,,Overcast,10,2013-03-24 05:53:00
1:48 AM,30.2,26.6,86,29.94,2.0,North,19.6,-,0.00,Snow,Light Snow,10,2013-03-24 06:48:00
1:53 AM,30.9,27.0,85,29.96,1.8,North,18.4,-,0.00,Snow,Light Snow,10,2013-03-24 06:53:00
2:22 AM,30.2,28.4,93,29.94,0.8,North,16.1,-,0.00,Snow,Light Snow,10,2013-03-24 07:22:00
2:31 AM,30.2,28.4,93,29.94,0.8,North,17.3,-,0.00,Snow,Light Snow,10,2013-03-24 07:31:00
2:43 AM,30.2,28.4,93,29.93,0.5,North,19.6,-,0.00,Fog-Snow,Snow,10,2013-03-24 07:43:00
2:50 AM,30.2,28.4,93,29.93,0.8,North,19.6,-,0.00,Snow,Light Snow,360,2013-03-24 07:50:00
2:53 AM,30.0,28.0,92,29.95,0.8,North,18.4,-,0.00,Snow,Light Snow,360,2013-03-24 07:53:00
3:03 AM,30.2,26.6,86,29.94,1.0,North,16.1,-,0.00,Snow,Light Snow,360,2013-03-24 08:03:00
3:10 AM,30.2,26.6,86,29.93,1.0,North,19.6,-,0.00,Snow,Light Snow,360,2013-03-24 08:10:00
3:27 AM,28.4,26.6,93,29.93,0.8,North,20.7,-,0.00,Snow,Light Snow,360,2013-03-24 08:27:00
3:53 AM,28.9,26.1,89,29.95,0.8,North,21.9,-,0.00,Snow,Light Snow,360,2013-03-24 08:53:00
4:05 AM,28.4,26.6,93,29.93,1.0,North,21.9,-,0.00,Snow,Light Snow,360,2013-03-24 09:05:00
4:53 AM,28.9,26.1,89,29.95,1.0,North,24.2,-,0.00,Snow,Light Snow,360,2013-03-24 09:53:00
5:33 AM,28.4,26.6,93,29.93,1.0,North,23.0,29.9,0.00,Snow,Light Snow,360,2013-03-24 10:33:00
5:53 AM,28.9,26.1,89,29.96,1.2,North,17.3,-,0.00,Snow,Light Snow,360,2013-03-24 10:53:00
6:11 AM,28.4,26.6,93,29.94,1.5,North,19.6,26.5,0.00,Snow,Light Snow,360,2013-03-24 11:11:00
6:53 AM,28.0,25.0,88,29.96,1.5,North,21.9,-,0.00,Snow,Light Snow,350,2013-03-24 11:53:00
7:26 AM,28.4,24.8,86,29.94,1.2,North,19.6,-,0.00,Snow,Light Snow,350,2013-03-24 12:26:00
7:33 AM,28.4,24.8,86,29.95,1.2,North,21.9,-,0.00,Snow,Light Snow,360,2013-03-24 12:33:00
7:53 AM,27.0,24.1,89,29.97,0.8,North,19.6,-,0.00,Snow,Light Snow,350,2013-03-24 12:53:00
8:07 AM,26.6,23.0,86,29.95,0.8,North,21.9,-,0.00,Snow,Light Snow,350,2013-03-24 13:07:00
8:50 AM,26.6,23.0,86,29.96,1.0,North,23.0,27.6,0.00,Snow,Light Snow,350,2013-03-24 13:50:00
8:53 AM,26.1,23.0,88,29.99,1.0,North,19.6,27.6,0.00,Snow,Light Snow,350,2013-03-24 13:53:00
9:25 AM,26.6,23.0,86,29.97,0.8,NNW,20.7,-,0.00,Snow,Light Snow,340,2013-03-24 14:25:00
9:32 AM,26.6,21.2,80,29.97,1.0,North,23.0,-,0.00,Snow,Light Snow,350,2013-03-24 14:32:00
9:53 AM,26.1,21.9,84,30.00,1.5,NNW,20.7,-,0.00,Snow,Light Snow,340,2013-03-24 14:53:00
10:53 AM,27.0,21.9,81,30.00,1.0,NNW,25.3,31.1,0.00,Snow,Light Snow,340,2013-03-24 15:53:00
11:35 AM,28.4,23.0,80,29.97,2.0,NNW,23.0,28.8,0.00,Snow,Light Snow,340,2013-03-24 16:35:00
11:53 AM,28.0,23.0,81,30.00,2.5,NNW,19.6,31.1,0.00,Snow,Light Snow,340,2013-03-24 16:53:00
12:05 PM,28.4,21.2,74,29.98,3.0,NNW,19.6,32.2,0.00,Snow,Light Snow,340,2013-03-24 17:05:00
12:18 PM,28.4,23.0,80,29.98,4.0,NNW,21.9,-,0.00,Snow,Light Snow,340,2013-03-24 17:18:00
12:53 PM,28.9,23.0,78,30.00,7.0,NNW,21.9,28.8,0.00,,Overcast,340,2013-03-24 17:53:00
1:53 PM,30.9,21.9,69,30.00,10.0,NNW,21.9,31.1,N/A,,Mostly Cloudy,330,2013-03-24 18:53:00
2:53 PM,30.9,21.9,69,29.99,10.0,NNW,23.0,32.2,N/A,,Mostly Cloudy,330,2013-03-24 19:53:00
3:53 PM,30.9,21.9,69,30.01,6.0,NW,19.6,31.1,N/A,,Haze,320,2013-03-24 20:53:00
4:53 PM,30.0,21.9,72,30.02,6.0,NW,19.6,31.1,N/A,,Haze,320,2013-03-24 21:53:00
5:53 PM,30.0,21.0,69,30.03,8.0,NW,21.9,29.9,N/A,,Overcast,310,2013-03-24 22:53:00
6:17 PM,28.4,19.4,69,30.01,8.0,NW,24.2,31.1,N/A,,Overcast,310,2013-03-24 23:17:00
6:53 PM,28.9,19.9,69,30.06,7.0,NW,20.7,-,N/A,,Overcast,310,2013-03-24 23:53:00
7:53 PM,28.0,19.0,69,30.07,9.0,NW,20.7,29.9,N/A,,Overcast,310,2013-03-25 00:53:00
8:53 PM,28.0,18.0,66,30.09,7.0,NW,19.6,-,0.00,,Overcast,310,2013-03-25 01:53:00
9:53 PM,27.0,19.0,72,30.10,7.0,NW,17.3,25.3,N/A,,Overcast,320,2013-03-25 02:53:00
10:53 PM,25.0,18.0,75,30.10,10.0,NW,15.0,-,N/A,,Overcast,310,2013-03-25 03:53:00
11:53 PM,25.0,18.0,75,30.10,9.0,NW,18.4,-,N/A,,Overcast,320,2013-03-25 04:53:00